Terminal Aerodrome Forecast
Issued by NWS

Home | Current Version | Previous Version | Text Only | Print | Product List | Glossary On
Versions: 1 2 3 4 5 6 7 8 9 10 11 12 13 14 15 16 17 18
000
FTUS45 KTFX 280540
TAFGTF
TAF
KGTF 280540Z 2806/2906 VRB06KT P6SM SCT050 BKN080
     FM280900 24007KT P6SM FEW050 SCT100
     FM281800 24015G25KT P6SM SCT060=

USA.gov is the U.S. government's official web portal to all federal, state and local government web resources and services.